createdAt,value
2019-01-22T00:00:04.900Z,42.73
2019-01-22T00:01:08.991Z,41.28
2019-01-22T00:02:12.576Z,43.52
2019-01-22T00:03:16.261Z,40.95
2019-01-22T00:04:19.738Z,42.25
2019-01-22T00:05:23.349Z,43.02
2019-01-22T00:06:26.937Z,41.95
2019-01-22T00:07:30.436Z,41.35
2019-01-22T00:08:33.873Z,42.65
2019-01-22T00:09:37.413Z,43.45
2019-01-22T00:10:42.324Z,41.13
2019-01-22T00:11:46.014Z,41.40
2019-01-22T00:12:49.833Z,42.85
2019-01-22T00:13:53.336Z,41.63
2019-01-22T00:14:56.780Z,40.98
2019-01-22T00:16:00.351Z,41.63
2019-01-22T00:17:03.784Z,42.10
2019-01-22T00:18:07.305Z,40.85
2019-01-22T00:19:10.910Z,45.67
2019-01-22T00:20:15.677Z,46.18
2019-01-22T00:21:19.219Z,43.33
2019-01-22T00:22:22.735Z,43.35
2019-01-22T00:23:26.220Z,43.75
2019-01-22T00:24:29.715Z,44.33
2019-01-22T00:25:33.225Z,43.25
2019-01-22T00:26:36.868Z,42.78
2019-01-22T00:27:40.580Z,42.27
2019-01-22T00:28:44.195Z,40.92
2019-01-22T00:29:47.713Z,40.38
2019-01-22T00:30:51.146Z,43.68
2019-01-22T00:31:55.114Z,41.13
2019-01-22T00:32:58.602Z,41.53
2019-01-22T00:34:02.098Z,41.05
2019-01-22T00:35:06.275Z,41.48
2019-01-22T00:36:09.776Z,41.83
2019-01-22T00:37:13.274Z,42.80
2019-01-22T00:38:16.803Z,42.48
2019-01-22T00:39:20.303Z,42.85
2019-01-22T00:40:23.817Z,40.70
2019-01-22T00:41:27.312Z,43.10
2019-01-22T00:42:30.815Z,40.95
2019-01-22T00:43:34.553Z,40.63
2019-01-22T00:44:38.217Z,40.17
2019-01-22T00:45:41.716Z,40.48
2019-01-22T00:46:45.151Z,42.20
2019-01-22T00:47:48.590Z,43.55
2019-01-22T00:48:52.041Z,40.67
2019-01-22T00:49:55.486Z,43.50
2019-01-22T00:50:58.943Z,42.55
2019-01-22T00:52:02.386Z,41.68
2019-01-22T00:53:09.914Z,42.60
2019-01-22T00:54:11.081Z,41.42
2019-01-22T00:55:18.996Z,43.15
2019-01-22T00:56:22.491Z,41.45
2019-01-22T00:57:25.920Z,39.63
2019-01-22T00:58:29.352Z,41.35
2019-01-22T00:59:33.571Z,42.48
2019-01-22T01:00:37.479Z,41.13
2019-01-22T01:01:40.974Z,41.20
2019-01-22T01:02:44.554Z,45.23
2019-01-22T01:03:48.075Z,40.90
2019-01-22T01:04:51.588Z,40.48
2019-01-22T01:05:55.085Z,41.73
2019-01-22T01:06:58.739Z,39.98
2019-01-22T01:08:02.253Z,41.88
2019-01-22T01:09:07.862Z,43.25
2019-01-22T01:10:13.266Z,40.80
2019-01-22T01:11:16.770Z,40.10
2019-01-22T01:12:20.285Z,42.95
2019-01-22T01:13:23.946Z,41.80
2019-01-22T01:14:27.541Z,41.85
2019-01-22T01:15:31.224Z,40.10
2019-01-22T01:16:35.038Z,39.80
2019-01-22T01:17:38.560Z,42.23
2019-01-22T01:18:42.159Z,39.73
2019-01-22T01:19:45.750Z,41.60
2019-01-22T01:20:49.258Z,42.03
2019-01-22T01:21:52.697Z,42.48
2019-01-22T01:22:56.245Z,43.05
2019-01-22T01:23:59.828Z,42.90
2019-01-22T01:25:03.538Z,42.67
2019-01-22T01:26:06.976Z,42.05
2019-01-22T01:27:10.650Z,41.30
2019-01-22T01:28:14.091Z,42.75
2019-01-22T01:29:17.555Z,41.30
2019-01-22T01:30:23.223Z,42.13
2019-01-22T01:31:27.187Z,42.00
2019-01-22T01:32:30.698Z,41.48
2019-01-22T01:33:34.181Z,42.70
2019-01-22T01:34:37.719Z,44.48
2019-01-22T01:35:41.189Z,42.17
2019-01-22T01:36:44.731Z,43.23
2019-01-22T01:37:48.233Z,41.42
2019-01-22T01:38:51.700Z,38.95
2019-01-22T01:39:55.164Z,42.75
2019-01-22T01:40:58.598Z,42.30
2019-01-22T01:42:02.202Z,42.85
2019-01-22T01:43:05.786Z,44.70
2019-01-22T01:44:09.381Z,42.08
2019-01-22T01:45:13.059Z,43.17
2019-01-22T01:46:16.883Z,41.30
2019-01-22T01:47:20.405Z,43.52
2019-01-22T01:48:23.911Z,42.90
2019-01-22T01:49:27.389Z,41.68
2019-01-22T01:50:30.890Z,40.30
2019-01-22T01:51:34.400Z,40.60
2019-01-22T01:52:37.919Z,41.40
2019-01-22T01:53:41.529Z,41.83
2019-01-22T01:54:45.149Z,40.45
2019-01-22T01:55:48.745Z,40.98
2019-01-22T01:56:52.276Z,40.10
2019-01-22T01:57:55.805Z,40.80
2019-01-22T01:58:59.335Z,37.70
2019-01-22T02:00:03.007Z,43.05
2019-01-22T02:01:06.742Z,39.78
2019-01-22T02:02:13.168Z,42.08
2019-01-22T02:03:16.668Z,39.78
2019-01-22T02:04:20.132Z,41.75
2019-01-22T02:05:25.196Z,40.75
2019-01-22T02:06:28.717Z,41.50
2019-01-22T02:07:32.433Z,39.15
2019-01-22T02:08:35.842Z,42.65
2019-01-22T02:09:39.379Z,40.28
2019-01-22T02:10:42.957Z,40.88
2019-01-22T02:11:46.409Z,43.10
2019-01-22T02:12:55.692Z,41.90
2019-01-22T02:13:59.274Z,43.42
2019-01-22T02:15:02.961Z,43.25
2019-01-22T02:16:21.179Z,40.03
2019-01-22T02:17:39.592Z,40.55
2019-01-22T02:18:48.810Z,42.75
2019-01-22T02:19:58.201Z,40.63
2019-01-22T02:21:22.561Z,39.92
2019-01-22T02:22:34.922Z,37.63
2019-01-22T02:23:43.954Z,40.70
2019-01-22T02:24:53.088Z,39.63
2019-01-22T02:26:19.831Z,42.43
2019-01-22T02:27:32.340Z,40.15
2019-01-22T02:28:54.889Z,42.05
2019-01-22T02:30:17.365Z,38.95
2019-01-22T02:31:23.869Z,40.50
2019-01-22T02:32:30.382Z,40.70
2019-01-22T02:33:36.876Z,43.13
2019-01-22T02:34:52.098Z,40.03
2019-01-22T02:36:01.224Z,43.00
2019-01-22T02:37:37.513Z,41.83
2019-01-22T02:38:55.633Z,41.70
2019-01-22T02:40:07.649Z,40.50
2019-01-22T02:41:16.893Z,38.78
2019-01-22T02:42:28.986Z,40.30
2019-01-22T02:43:53.109Z,40.60
2019-01-22T02:45:18.506Z,39.00
2019-01-22T02:46:54.848Z,39.53
2019-01-22T02:48:01.327Z,40.58
2019-01-22T02:49:25.743Z,40.50
2019-01-22T02:50:40.689Z,38.98
2019-01-22T02:51:52.679Z,39.65
2019-01-22T02:52:59.204Z,41.33
2019-01-22T02:54:06.039Z,42.62
2019-01-22T02:55:18.026Z,42.73
2019-01-22T02:56:27.409Z,39.85
2019-01-22T02:57:48.647Z,39.88
2019-01-22T02:59:01.060Z,39.27
2019-01-22T03:00:29.857Z,38.88
2019-01-22T03:02:07.800Z,38.45
2019-01-22T03:03:35.118Z,39.40
2019-01-22T03:04:41.629Z,41.10
2019-01-22T03:06:12.245Z,43.45
2019-01-22T03:07:33.857Z,38.02
2019-01-22T03:08:59.850Z,40.05
2019-01-22T03:10:15.102Z,41.08
2019-01-22T03:11:37.980Z,40.60
2019-01-22T03:12:44.526Z,39.67
2019-01-22T03:14:07.122Z,39.10
2019-01-22T03:15:41.989Z,42.33
2019-01-22T03:16:48.518Z,38.63
2019-01-22T03:18:15.614Z,42.13
2019-01-22T03:19:33.771Z,40.00
2019-01-22T03:20:49.194Z,39.35
2019-01-22T03:21:55.923Z,41.95
2019-01-22T03:23:08.489Z,40.48
2019-01-22T03:24:37.256Z,39.67
2019-01-22T03:25:46.546Z,39.08
2019-01-22T03:27:08.186Z,42.13
2019-01-22T03:28:23.546Z,38.55
2019-01-22T03:29:44.959Z,39.88
2019-01-22T03:30:51.489Z,39.48
2019-01-22T03:32:15.640Z,41.10
2019-01-22T03:33:22.116Z,41.25
2019-01-22T03:34:31.205Z,38.98
2019-01-22T03:35:46.803Z,38.35
2019-01-22T03:37:23.161Z,40.33
2019-01-22T03:38:44.305Z,39.20
2019-01-22T03:39:50.804Z,40.38
2019-01-22T03:41:22.684Z,39.53
2019-01-22T03:42:34.996Z,38.02
2019-01-22T03:43:57.715Z,36.83
2019-01-22T03:45:16.072Z,39.80
2019-01-22T03:46:22.573Z,39.98
2019-01-22T03:47:53.098Z,39.20
2019-01-22T03:49:08.313Z,40.60
2019-01-22T03:50:32.942Z,37.42
2019-01-22T03:51:39.459Z,37.88
2019-01-22T03:52:45.959Z,40.65
2019-01-22T03:54:20.831Z,39.10
2019-01-22T03:55:45.315Z,39.00
2019-01-22T03:57:09.779Z,40.25
2019-01-22T03:58:13.292Z,38.40
2019-01-22T03:59:16.858Z,38.17
2019-01-22T04:00:22.318Z,38.35
2019-01-22T04:01:25.923Z,37.38
2019-01-22T04:02:30.514Z,38.78
2019-01-22T04:03:34.103Z,37.48
2019-01-22T04:04:37.535Z,39.33
2019-01-22T04:05:40.977Z,38.55
2019-01-22T04:06:45.030Z,38.83
2019-01-22T04:07:48.619Z,38.35
2019-01-22T04:08:53.612Z,40.98
2019-01-22T04:09:58.992Z,37.48
2019-01-22T04:11:04.282Z,39.50
2019-01-22T04:12:07.818Z,39.92
2019-01-22T04:13:11.440Z,37.10
2019-01-22T04:14:14.959Z,38.90
2019-01-22T04:15:21.519Z,38.75
2019-01-22T04:16:25.312Z,39.05
2019-01-22T04:17:28.953Z,39.18
2019-01-22T04:18:32.565Z,38.25
2019-01-22T04:19:36.142Z,40.67
2019-01-22T04:20:39.648Z,37.45
2019-01-22T04:21:43.228Z,40.25
2019-01-22T04:22:48.251Z,39.92
2019-01-22T04:24:01.454Z,41.25
2019-01-22T04:25:05.788Z,38.85
2019-01-22T04:26:28.695Z,38.50
2019-01-22T04:27:37.904Z,39.55
2019-01-22T04:29:09.685Z,39.45
2019-01-22T04:30:27.847Z,36.08
2019-01-22T04:31:37.012Z,38.38
2019-01-22T04:32:43.548Z,38.05
2019-01-22T04:34:12.149Z,39.75
2019-01-22T04:35:39.682Z,40.60
2019-01-22T04:36:58.195Z,37.15
2019-01-22T04:38:04.709Z,37.88
2019-01-22T04:39:16.815Z,37.48
2019-01-22T04:40:23.312Z,38.90
2019-01-22T04:41:48.806Z,37.85
2019-01-22T04:43:20.704Z,38.20
2019-01-22T04:44:47.480Z,39.55
2019-01-22T04:45:53.972Z,37.65
2019-01-22T04:47:12.544Z,38.65
2019-01-22T04:48:27.230Z,37.70
2019-01-22T04:49:33.801Z,38.30
2019-01-22T04:50:46.125Z,38.90
2019-01-22T04:51:55.594Z,40.90
2019-01-22T04:53:20.166Z,36.20
2019-01-22T04:54:32.466Z,36.65
2019-01-22T04:56:10.590Z,37.85
2019-01-22T04:57:25.835Z,38.20
2019-01-22T04:58:38.182Z,39.33
2019-01-22T04:59:44.689Z,38.50
2019-01-22T05:01:02.920Z,40.15
2019-01-22T05:02:18.119Z,39.15
2019-01-22T05:03:27.534Z,41.23
2019-01-22T05:04:36.725Z,37.30
2019-01-22T05:05:48.660Z,37.23
2019-01-22T05:07:15.650Z,39.78
2019-01-22T05:08:40.460Z,39.80
2019-01-22T05:10:03.156Z,38.80
2019-01-22T05:11:15.090Z,39.20
2019-01-22T05:12:33.674Z,37.30
2019-01-22T05:13:48.844Z,38.38
2019-01-22T05:15:17.311Z,35.17
2019-01-22T05:16:29.196Z,35.00
2019-01-22T05:17:41.471Z,37.35
2019-01-22T05:18:59.652Z,36.23
2019-01-22T05:20:06.138Z,38.05
2019-01-22T05:21:36.468Z,37.67
2019-01-22T05:22:45.710Z,35.65
2019-01-22T05:24:00.787Z,36.85
2019-01-22T05:25:10.048Z,35.78
2019-01-22T05:26:19.260Z,34.78
2019-01-22T05:27:34.310Z,38.40
2019-01-22T05:28:52.659Z,38.50
2019-01-22T05:30:13.108Z,38.98
2019-01-22T05:31:40.219Z,36.15
2019-01-22T05:32:52.415Z,37.35
2019-01-22T05:33:58.914Z,37.50
2019-01-22T05:35:17.112Z,37.93
2019-01-22T05:36:38.503Z,37.53
2019-01-22T05:37:59.548Z,38.75
2019-01-22T05:39:14.328Z,38.25
2019-01-22T05:40:37.196Z,37.85
2019-01-22T05:42:01.617Z,36.25
2019-01-22T05:43:13.362Z,38.75
2019-01-22T05:44:34.611Z,37.15
2019-01-22T05:46:00.365Z,37.58
2019-01-22T05:47:12.539Z,36.40
2019-01-22T05:48:19.006Z,37.53
2019-01-22T05:49:40.114Z,38.35
2019-01-22T05:50:49.465Z,38.10
2019-01-22T05:52:07.746Z,39.63
2019-01-22T05:53:25.878Z,40.17
2019-01-22T05:54:32.403Z,39.75
2019-01-22T05:55:53.605Z,36.83
2019-01-22T05:57:00.087Z,35.50
2019-01-22T05:58:37.777Z,38.75
2019-01-22T05:59:59.032Z,38.63
2019-01-22T06:01:05.650Z,38.25
2019-01-22T06:02:12.165Z,39.60
2019-01-22T06:03:27.743Z,41.70
2019-01-22T06:04:49.033Z,38.53
2019-01-22T06:05:59.837Z,37.90
2019-01-22T06:07:09.181Z,40.38
2019-01-22T06:08:33.555Z,38.13
2019-01-22T06:09:48.880Z,39.88
2019-01-22T06:10:55.378Z,37.48
2019-01-22T06:12:16.779Z,40.45
2019-01-22T06:13:28.972Z,40.83
2019-01-22T06:14:41.272Z,39.33
2019-01-22T06:15:47.822Z,37.73
2019-01-22T06:17:13.471Z,39.05
2019-01-22T06:18:20.046Z,39.33
2019-01-22T06:19:35.252Z,40.30
2019-01-22T06:20:59.527Z,37.38
2019-01-22T06:22:22.324Z,39.58
2019-01-22T06:23:46.570Z,39.35
2019-01-22T06:24:55.899Z,38.63
2019-01-22T06:26:11.054Z,42.73
2019-01-22T06:27:20.126Z,38.20
2019-01-22T06:28:35.143Z,37.23
2019-01-22T06:30:00.905Z,39.60
2019-01-22T06:31:22.629Z,37.93
2019-01-22T06:32:31.938Z,38.80
2019-01-22T06:33:38.434Z,38.23
2019-01-22T06:34:44.914Z,39.48
2019-01-22T06:36:09.382Z,41.10
2019-01-22T06:37:15.879Z,39.40
2019-01-22T06:38:22.373Z,40.38
2019-01-22T06:39:31.865Z,40.70
2019-01-22T06:40:54.546Z,39.03
2019-01-22T06:42:25.258Z,39.83
2019-01-22T06:43:31.813Z,40.65
2019-01-22T06:44:44.126Z,37.85
2019-01-22T06:45:50.660Z,42.85
2019-01-22T06:47:12.049Z,39.27
2019-01-22T06:48:39.182Z,41.20
2019-01-22T06:50:00.336Z,38.40
2019-01-22T06:51:21.049Z,41.98
2019-01-22T06:52:42.297Z,38.98
2019-01-22T06:53:57.081Z,40.48
2019-01-22T06:55:09.368Z,39.50
2019-01-22T06:56:39.841Z,43.45
2019-01-22T06:58:13.028Z,36.88
2019-01-22T06:59:22.357Z,39.10
2019-01-22T07:00:31.587Z,39.55
2019-01-22T07:01:46.532Z,39.18
2019-01-22T07:02:55.929Z,39.20
2019-01-22T07:04:02.582Z,41.83
2019-01-22T07:05:11.615Z,40.75
2019-01-22T07:06:34.801Z,41.75
2019-01-22T07:07:52.770Z,40.48
2019-01-22T07:09:21.555Z,40.25
2019-01-22T07:10:33.312Z,38.98
2019-01-22T07:11:42.298Z,40.20
2019-01-22T07:12:48.831Z,40.30
2019-01-22T07:14:00.982Z,44.30
2019-01-22T07:15:19.202Z,39.13
2019-01-22T07:16:28.239Z,37.48
2019-01-22T07:17:37.516Z,37.85
2019-01-22T07:18:55.965Z,39.40
2019-01-22T07:20:14.208Z,40.30
2019-01-22T07:21:32.559Z,36.40
2019-01-22T07:22:39.066Z,36.15
2019-01-22T07:23:45.638Z,38.80
2019-01-22T07:24:54.570Z,34.63
2019-01-22T07:26:09.864Z,39.55
2019-01-22T07:27:19.196Z,36.53
2019-01-22T07:28:25.769Z,38.50
2019-01-22T07:29:44.169Z,39.18
2019-01-22T07:31:06.057Z,36.70
2019-01-22T07:32:27.794Z,35.03
2019-01-22T07:33:52.020Z,39.00
2019-01-22T07:35:15.827Z,35.88
2019-01-22T07:36:47.723Z,36.60
2019-01-22T07:37:54.224Z,39.30
2019-01-22T07:39:09.077Z,35.48
2019-01-22T07:40:36.283Z,37.93
2019-01-22T07:41:57.460Z,35.75
2019-01-22T07:43:21.600Z,37.15
2019-01-22T07:44:33.979Z,39.80
2019-01-22T07:45:59.852Z,39.10
2019-01-22T07:47:25.642Z,33.90
2019-01-22T07:48:32.338Z,43.02
2019-01-22T07:49:41.845Z,41.42
2019-01-22T07:50:50.935Z,43.30
2019-01-22T07:52:06.167Z,37.40
2019-01-22T07:53:30.206Z,38.70
2019-01-22T07:55:03.554Z,36.95
2019-01-22T07:56:21.735Z,38.80
2019-01-22T07:57:39.873Z,36.98
2019-01-22T07:59:10.188Z,39.18
2019-01-22T08:00:19.397Z,39.50
2019-01-22T08:01:43.914Z,39.00
2019-01-22T08:02:59.284Z,37.45
2019-01-22T08:04:13.087Z,37.20
2019-01-22T08:05:30.007Z,37.95
2019-01-22T08:07:01.760Z,35.63
2019-01-22T08:08:27.846Z,36.23
2019-01-22T08:09:51.973Z,36.60
2019-01-22T08:11:01.270Z,37.00
2019-01-22T08:12:26.523Z,35.55
2019-01-22T08:13:33.014Z,36.03
2019-01-22T08:14:45.394Z,36.90
2019-01-22T08:16:00.696Z,38.92
2019-01-22T08:17:18.926Z,39.58
2019-01-22T08:18:30.652Z,37.23
2019-01-22T08:19:57.869Z,36.88
2019-01-22T08:21:06.860Z,38.40
2019-01-22T08:22:24.964Z,37.78
2019-01-22T08:23:55.078Z,36.73
2019-01-22T08:25:13.581Z,36.45
2019-01-22T08:26:37.917Z,36.90
2019-01-22T08:28:09.337Z,39.73
2019-01-22T08:29:21.140Z,38.50
2019-01-22T08:30:45.309Z,36.50
2019-01-22T08:32:10.817Z,36.17
2019-01-22T08:33:17.309Z,35.33
2019-01-22T08:34:54.930Z,38.30
2019-01-22T08:36:09.778Z,34.90
2019-01-22T08:37:37.108Z,36.88
2019-01-22T08:38:43.606Z,34.90
2019-01-22T08:40:01.604Z,34.48
2019-01-22T08:41:26.131Z,38.10
2019-01-22T08:42:35.539Z,37.25
2019-01-22T08:44:08.832Z,35.03
2019-01-22T08:45:27.338Z,38.92
2019-01-22T08:46:36.612Z,36.05
2019-01-22T08:48:00.816Z,36.70
2019-01-22T08:49:10.164Z,36.45
2019-01-22T08:50:16.640Z,36.58
2019-01-22T08:51:42.177Z,35.55
2019-01-22T08:52:57.424Z,35.20
2019-01-22T08:54:32.071Z,35.52
2019-01-22T08:55:38.560Z,35.45
2019-01-22T08:57:01.153Z,38.83
2019-01-22T08:58:18.790Z,38.50
2019-01-22T08:59:25.309Z,40.28
2019-01-22T09:00:37.224Z,38.02
2019-01-22T09:01:51.626Z,39.10
2019-01-22T09:03:17.266Z,36.08
2019-01-22T09:04:32.641Z,38.23
2019-01-22T09:05:39.133Z,37.55
2019-01-22T09:07:12.496Z,38.70
2019-01-22T09:08:18.979Z,35.83
2019-01-22T09:09:28.226Z,38.92
2019-01-22T09:11:01.879Z,39.40
2019-01-22T09:12:14.423Z,37.98
2019-01-22T09:13:29.562Z,39.88
2019-01-22T09:14:38.994Z,38.50
2019-01-22T09:16:01.786Z,39.50
2019-01-22T09:17:24.854Z,40.30
2019-01-22T09:18:40.752Z,39.75
2019-01-22T09:19:53.107Z,37.30
2019-01-22T09:21:05.561Z,37.90
2019-01-22T09:22:34.357Z,37.33
2019-01-22T09:23:46.627Z,38.00
2019-01-22T09:24:59.002Z,39.80
2019-01-22T09:26:17.082Z,37.67
2019-01-22T09:27:29.323Z,40.55
2019-01-22T09:28:44.655Z,36.85
2019-01-22T09:30:20.795Z,40.35
2019-01-22T09:31:27.277Z,37.67
2019-01-22T09:32:48.353Z,39.25
2019-01-22T09:33:54.868Z,39.08
2019-01-22T09:35:17.346Z,38.60
2019-01-22T09:36:47.363Z,36.48
2019-01-22T09:37:50.939Z,39.42
2019-01-22T09:38:54.468Z,39.60
2019-01-22T09:39:57.971Z,41.05
2019-01-22T09:41:01.544Z,39.42
2019-01-22T09:42:05.119Z,40.85
2019-01-22T09:43:08.713Z,36.95
2019-01-22T09:44:12.179Z,37.90
2019-01-22T09:45:15.760Z,38.08
2019-01-22T09:46:19.221Z,38.08
2019-01-22T09:47:22.658Z,37.30
2019-01-22T09:48:26.169Z,37.65
2019-01-22T09:49:29.711Z,38.98
2019-01-22T09:50:34.236Z,40.08
2019-01-22T09:51:37.813Z,36.83
2019-01-22T09:52:41.257Z,34.55
2019-01-22T09:53:44.687Z,37.40
2019-01-22T09:54:48.213Z,35.45
2019-01-22T09:55:51.675Z,38.17
2019-01-22T09:56:55.191Z,36.65
2019-01-22T09:57:58.634Z,37.00
2019-01-22T09:59:02.197Z,38.50
2019-01-22T10:00:08.730Z,37.10
2019-01-22T10:01:12.246Z,37.95
2019-01-22T10:02:15.755Z,34.70
2019-01-22T10:03:19.340Z,36.90
2019-01-22T10:04:22.819Z,34.30
2019-01-22T10:05:26.321Z,35.83
2019-01-22T10:06:29.890Z,37.98
2019-01-22T10:07:33.414Z,36.58
2019-01-22T10:08:36.945Z,33.95
2019-01-22T10:09:40.421Z,36.90
2019-01-22T10:10:43.956Z,37.40
2019-01-22T10:11:47.523Z,35.70
2019-01-22T10:12:51.100Z,35.60
2019-01-22T10:13:54.824Z,35.52
2019-01-22T10:14:58.388Z,35.20
2019-01-22T10:16:02.013Z,37.28
2019-01-22T10:17:05.517Z,37.58
2019-01-22T10:18:09.120Z,36.75
2019-01-22T10:19:12.644Z,35.75
2019-01-22T10:20:23.699Z,37.75
2019-01-22T10:21:27.277Z,35.78
2019-01-22T10:22:30.778Z,33.08
2019-01-22T10:23:34.359Z,31.73
2019-01-22T10:24:37.906Z,30.35
2019-01-22T10:25:41.410Z,32.30
2019-01-22T10:26:44.921Z,32.48
2019-01-22T10:27:48.583Z,32.15
2019-01-22T10:28:52.214Z,31.57
2019-01-22T10:29:55.745Z,31.17
2019-01-22T10:30:59.239Z,33.35
2019-01-22T10:32:02.716Z,31.93
2019-01-22T10:33:06.300Z,31.97
2019-01-22T10:34:09.854Z,31.93
2019-01-22T10:35:14.255Z,32.13
2019-01-22T10:36:17.932Z,30.68
2019-01-22T10:37:21.426Z,29.98
2019-01-22T10:38:24.824Z,32.35
2019-01-22T10:39:28.279Z,30.25
2019-01-22T10:40:31.797Z,30.20
2019-01-22T10:41:35.313Z,33.10
2019-01-22T10:42:38.745Z,29.50
2019-01-22T10:43:42.164Z,30.55
2019-01-22T10:44:45.615Z,33.98
2019-01-22T10:45:49.080Z,31.40
2019-01-22T10:46:52.614Z,32.42
2019-01-22T10:47:56.116Z,30.75
2019-01-22T10:48:59.744Z,29.42
2019-01-22T10:50:04.474Z,29.55
2019-01-22T10:51:07.905Z,31.27
2019-01-22T10:52:11.339Z,31.77
2019-01-22T10:53:14.781Z,32.78
2019-01-22T10:54:18.295Z,31.07
2019-01-22T10:55:21.902Z,31.33
2019-01-22T10:56:25.371Z,30.50
2019-01-22T10:57:28.882Z,31.23
2019-01-22T10:58:32.468Z,31.85
2019-01-22T10:59:35.934Z,30.72
2019-01-22T11:00:39.732Z,31.37
2019-01-22T11:01:43.240Z,30.08
2019-01-22T11:02:46.674Z,29.15
2019-01-22T11:03:50.261Z,29.75
2019-01-22T11:04:53.869Z,30.20
2019-01-22T11:05:57.402Z,30.95
2019-01-22T11:07:00.850Z,29.87
2019-01-22T11:08:04.606Z,30.52
2019-01-22T11:09:08.495Z,30.72
2019-01-22T11:10:12.074Z,29.90
2019-01-22T11:11:15.599Z,29.52
2019-01-22T11:12:19.072Z,28.75
2019-01-22T11:13:22.520Z,29.95
2019-01-22T11:14:26.018Z,28.32
2019-01-22T11:15:29.540Z,30.12
2019-01-22T11:16:33.066Z,30.43
2019-01-22T11:17:36.502Z,29.55
2019-01-22T11:18:40.625Z,30.75
2019-01-22T11:19:44.072Z,31.23
2019-01-22T11:20:47.583Z,31.20
2019-01-22T11:21:51.044Z,31.35
2019-01-22T11:22:54.638Z,29.57
2019-01-22T11:23:58.330Z,32.25
2019-01-22T11:25:01.861Z,29.70
2019-01-22T11:26:05.428Z,29.90
2019-01-22T11:27:08.926Z,29.50
2019-01-22T11:28:12.515Z,31.27
2019-01-22T11:29:15.960Z,32.28
2019-01-22T11:30:22.433Z,31.35
2019-01-22T11:31:25.939Z,30.62
2019-01-22T11:32:29.383Z,31.20
2019-01-22T11:33:33.546Z,33.23
2019-01-22T11:34:37.097Z,29.60
2019-01-22T11:35:40.598Z,27.67
2019-01-22T11:36:44.186Z,29.80
2019-01-22T11:37:47.701Z,30.70
2019-01-22T11:38:51.391Z,30.05
2019-01-22T11:39:54.825Z,29.40
2019-01-22T11:40:58.347Z,30.75
2019-01-22T11:42:01.874Z,29.70
2019-01-22T11:43:05.546Z,30.75
2019-01-22T11:44:09.048Z,29.95
2019-01-22T11:45:12.723Z,30.68
2019-01-22T11:46:16.307Z,29.32
2019-01-22T11:47:19.829Z,30.85
2019-01-22T11:48:23.263Z,28.23
2019-01-22T11:49:26.772Z,28.02
2019-01-22T11:50:30.223Z,29.87
2019-01-22T11:51:33.646Z,29.10
2019-01-22T11:52:37.167Z,29.23
2019-01-22T11:53:40.752Z,31.15
2019-01-22T11:54:44.196Z,28.77
2019-01-22T11:55:50.565Z,28.25
2019-01-22T11:56:52.903Z,29.05
2019-01-22T11:57:56.496Z,28.67
2019-01-22T11:59:00.073Z,29.85
2019-01-22T12:00:05.528Z,28.90
2019-01-22T12:01:09.122Z,31.10
2019-01-22T12:02:12.712Z,29.55
2019-01-22T12:03:16.294Z,29.45
2019-01-22T12:04:19.861Z,28.23
2019-01-22T12:05:23.310Z,28.35
2019-01-22T12:06:26.780Z,29.85
2019-01-22T12:07:30.248Z,30.02
2019-01-22T12:08:33.719Z,27.80
2019-01-22T12:09:37.155Z,29.65
2019-01-22T12:10:40.660Z,29.55
2019-01-22T12:11:44.097Z,29.25
2019-01-22T12:12:47.600Z,28.60
2019-01-22T12:13:54.058Z,27.85
2019-01-22T12:14:56.301Z,28.83
2019-01-22T12:15:59.816Z,25.45
2019-01-22T12:17:03.254Z,28.10
2019-01-22T12:18:06.844Z,29.27
2019-01-22T12:19:10.383Z,29.75
2019-01-22T12:20:19.568Z,30.75
2019-01-22T12:21:23.080Z,31.82
2019-01-22T12:22:26.579Z,32.55
2019-01-22T12:23:30.102Z,28.40
2019-01-22T12:24:33.607Z,33.78
2019-01-22T12:25:37.025Z,34.45
2019-01-22T12:26:40.485Z,33.18
2019-01-22T12:27:43.996Z,30.17
2019-01-22T12:28:47.495Z,31.05
2019-01-22T12:29:50.951Z,33.25
2019-01-22T12:30:54.657Z,35.03
2019-01-22T12:31:58.170Z,28.80
2019-01-22T12:33:01.672Z,30.08
2019-01-22T12:34:05.261Z,29.02
2019-01-22T12:35:11.333Z,27.17
2019-01-22T12:36:14.847Z,25.65
2019-01-22T12:37:18.368Z,26.42
2019-01-22T12:38:21.793Z,29.25
2019-01-22T12:39:25.256Z,28.38
2019-01-22T12:40:29.143Z,27.17
2019-01-22T12:41:32.582Z,25.82
2019-01-22T12:42:36.084Z,25.60
2019-01-22T12:43:39.595Z,26.33
2019-01-22T12:44:43.108Z,26.77
2019-01-22T12:45:46.601Z,27.00
2019-01-22T12:46:50.071Z,27.05
2019-01-22T12:47:53.601Z,25.95
2019-01-22T12:48:57.045Z,26.10
2019-01-22T12:50:00.496Z,28.00
2019-01-22T12:51:04.071Z,25.92
2019-01-22T12:52:07.579Z,24.25
2019-01-22T12:53:11.192Z,25.68
2019-01-22T12:54:14.701Z,25.45
2019-01-22T12:55:18.407Z,26.57
2019-01-22T12:56:21.839Z,25.95
2019-01-22T12:57:25.279Z,26.37
2019-01-22T12:58:28.716Z,26.12
2019-01-22T12:59:32.246Z,26.42
2019-01-22T13:00:37.788Z,27.55
2019-01-22T13:01:41.214Z,26.05
2019-01-22T13:02:44.723Z,24.25
2019-01-22T13:03:48.184Z,26.70
2019-01-22T13:04:51.682Z,27.25
2019-01-22T13:05:56.162Z,26.57
2019-01-22T13:06:59.730Z,24.45
2019-01-22T13:08:03.311Z,26.50
2019-01-22T13:09:08.002Z,25.60
2019-01-22T13:10:11.571Z,26.37
2019-01-22T13:11:15.072Z,26.90
2019-01-22T13:12:18.510Z,24.10
2019-01-22T13:13:22.009Z,26.45
2019-01-22T13:14:25.466Z,25.72
2019-01-22T13:15:28.981Z,40.23
2019-01-22T13:16:32.526Z,32.90
2019-01-22T13:17:36.041Z,32.20
2019-01-22T13:18:39.538Z,27.50
2019-01-22T13:19:42.999Z,23.67
2019-01-22T13:20:46.653Z,25.27
2019-01-22T13:21:50.084Z,25.02
2019-01-22T13:22:53.513Z,25.40
2019-01-22T13:23:57.018Z,26.15
2019-01-22T13:25:00.474Z,25.37
2019-01-22T13:26:04.055Z,25.37
2019-01-22T13:27:07.487Z,25.12
2019-01-22T13:28:11.088Z,23.92
2019-01-22T13:29:14.611Z,26.25
2019-01-22T13:30:24.858Z,25.90
2019-01-22T13:31:28.335Z,24.35
2019-01-22T13:32:31.837Z,24.63
2019-01-22T13:33:35.341Z,25.60
2019-01-22T13:34:38.792Z,25.57
2019-01-22T13:35:42.363Z,25.90
2019-01-22T13:36:45.798Z,27.65
2019-01-22T13:37:49.486Z,26.15
2019-01-22T13:38:52.923Z,26.75
2019-01-22T13:39:56.396Z,25.95
2019-01-22T13:40:59.831Z,27.60
2019-01-22T13:42:03.321Z,27.35
2019-01-22T13:43:06.899Z,27.25
2019-01-22T13:44:10.333Z,27.55
2019-01-22T13:45:28.554Z,28.15
2019-01-22T13:46:31.984Z,27.45
2019-01-22T13:47:35.483Z,27.15
2019-01-22T13:48:39.139Z,26.10
2019-01-22T13:49:42.672Z,25.72
2019-01-22T13:50:46.099Z,27.10
2019-01-22T13:51:49.536Z,26.62
2019-01-22T13:52:53.122Z,29.27
2019-01-22T13:53:56.640Z,27.32
2019-01-22T13:55:00.190Z,27.77
2019-01-22T13:56:03.785Z,28.07
2019-01-22T13:57:07.383Z,30.50
2019-01-22T13:58:10.908Z,26.82
2019-01-22T13:59:14.359Z,29.18
2019-01-22T14:00:20.342Z,28.67
2019-01-22T14:01:23.864Z,29.07
2019-01-22T14:02:27.365Z,28.25
2019-01-22T14:03:30.863Z,29.40
2019-01-22T14:04:34.391Z,27.40
2019-01-22T14:05:38.035Z,27.07
2019-01-22T14:06:41.477Z,27.77
2019-01-22T14:07:45.050Z,28.67
2019-01-22T14:08:48.485Z,28.32
2019-01-22T14:09:51.964Z,28.57
2019-01-22T14:10:55.414Z,28.10
2019-01-22T14:11:58.921Z,27.30
2019-01-22T14:13:02.353Z,28.35
2019-01-22T14:14:05.945Z,27.62
2019-01-22T14:15:12.751Z,30.08
2019-01-22T14:16:16.250Z,30.27
2019-01-22T14:17:19.729Z,27.25
2019-01-22T14:18:23.273Z,27.82
2019-01-22T14:19:26.816Z,32.98
2019-01-22T14:20:30.344Z,28.77
2019-01-22T14:21:33.769Z,27.32
2019-01-22T14:22:37.204Z,28.62
2019-01-22T14:23:40.653Z,28.30
2019-01-22T14:24:44.181Z,28.27
2019-01-22T14:25:47.692Z,27.70
2019-01-22T14:26:52.407Z,28.87
2019-01-22T14:27:55.926Z,29.02
2019-01-22T14:28:59.363Z,26.73
2019-01-22T14:30:02.955Z,27.80
2019-01-22T14:31:06.543Z,26.50
2019-01-22T14:32:10.139Z,27.73
2019-01-22T14:33:13.595Z,27.90
2019-01-22T14:34:17.061Z,28.98
2019-01-22T14:35:20.666Z,28.42
2019-01-22T14:36:24.162Z,26.23
2019-01-22T14:37:27.678Z,28.00
2019-01-22T14:38:31.119Z,27.93
2019-01-22T14:39:34.572Z,25.72
2019-01-22T14:40:38.148Z,28.10
2019-01-22T14:41:41.607Z,28.55
2019-01-22T14:42:45.172Z,28.30
2019-01-22T14:43:48.675Z,26.60
2019-01-22T14:44:52.107Z,28.35
2019-01-22T14:45:55.550Z,27.40
2019-01-22T14:46:59.055Z,29.72
2019-01-22T14:48:02.495Z,28.80
2019-01-22T14:49:06.017Z,31.65
2019-01-22T14:50:12.771Z,30.02
2019-01-22T14:51:16.262Z,28.73
2019-01-22T14:52:19.779Z,30.65